createdAt,value
2019-03-27T00:00:35.632Z,2.23
2019-03-27T00:03:09.070Z,3.17
2019-03-27T00:05:42.557Z,3.07
2019-03-27T00:08:16.034Z,3.00
2019-03-27T00:10:49.636Z,2.83
2019-03-27T00:13:23.222Z,2.27
2019-03-27T00:15:56.633Z,2.73
2019-03-27T00:18:30.011Z,2.50
2019-03-27T00:21:03.517Z,3.00
2019-03-27T00:23:37.042Z,2.47
2019-03-27T00:26:10.459Z,3.40
2019-03-27T00:28:43.904Z,2.80
2019-03-27T00:31:17.310Z,2.47
2019-03-27T00:33:51.655Z,2.73
2019-03-27T00:36:25.002Z,2.33
2019-03-27T00:38:58.512Z,3.60
2019-03-27T00:41:32.183Z,2.90
2019-03-27T00:44:05.622Z,2.87
2019-03-27T00:46:39.046Z,2.13
2019-03-27T00:49:12.427Z,3.00
2019-03-27T00:51:45.798Z,2.53
2019-03-27T00:54:19.246Z,3.43
2019-03-27T00:56:52.586Z,2.30
2019-03-27T00:59:26.061Z,2.50
2019-03-27T01:01:59.508Z,3.00
2019-03-27T01:04:33.010Z,2.70
2019-03-27T01:07:06.522Z,3.30
2019-03-27T01:09:39.943Z,2.07
2019-03-27T01:12:13.770Z,2.97
2019-03-27T01:14:47.293Z,3.37
2019-03-27T01:17:20.746Z,3.07
2019-03-27T01:19:54.242Z,2.10
2019-03-27T01:22:27.594Z,2.57
2019-03-27T01:25:01.091Z,3.00
2019-03-27T01:27:35.746Z,3.00
2019-03-27T01:30:09.695Z,2.57
2019-03-27T01:32:43.070Z,2.47
2019-03-27T01:35:16.438Z,2.73
2019-03-27T01:37:49.826Z,3.07
2019-03-27T01:40:23.233Z,2.97
2019-03-27T01:42:56.917Z,3.37
2019-03-27T01:45:30.362Z,3.10
2019-03-27T01:48:03.800Z,2.20
2019-03-27T01:50:37.208Z,3.00
2019-03-27T01:53:10.763Z,2.77
2019-03-27T01:55:44.180Z,3.60
2019-03-27T01:58:17.677Z,2.57
2019-03-27T02:00:51.150Z,2.47
2019-03-27T02:03:24.544Z,3.13
2019-03-27T02:05:58.055Z,2.33
2019-03-27T02:08:31.500Z,2.73
2019-03-27T02:11:04.929Z,3.53
2019-03-27T02:13:38.398Z,3.20
2019-03-27T02:16:11.907Z,2.30
2019-03-27T02:18:45.495Z,2.33
2019-03-27T02:21:18.992Z,2.93
2019-03-27T02:23:52.448Z,3.20
2019-03-27T02:26:25.883Z,3.13
2019-03-27T02:28:59.343Z,3.27
2019-03-27T02:31:32.792Z,3.23
2019-03-27T02:34:06.297Z,3.10
2019-03-27T02:36:39.799Z,3.03
2019-03-27T02:39:13.258Z,3.07
2019-03-27T02:41:46.664Z,3.07
2019-03-27T02:44:20.255Z,3.17
2019-03-27T02:46:53.617Z,4.43
2019-03-27T02:49:27.220Z,3.43
2019-03-27T02:52:00.658Z,3.57
2019-03-27T02:54:34.052Z,3.73
2019-03-27T02:57:07.582Z,3.10
2019-03-27T02:59:40.934Z,3.70
2019-03-27T03:02:14.436Z,3.53
2019-03-27T03:04:47.880Z,3.63
2019-03-27T03:07:21.338Z,4.90
2019-03-27T03:09:54.673Z,4.43
2019-03-27T03:12:28.220Z,4.60
2019-03-27T03:15:02.002Z,3.77
2019-03-27T03:17:35.539Z,3.87
2019-03-27T03:20:09.346Z,4.03
2019-03-27T03:22:42.764Z,4.33
2019-03-27T03:25:17.665Z,4.17
2019-03-27T03:27:51.059Z,4.23
2019-03-27T03:30:24.471Z,3.87
2019-03-27T03:32:57.930Z,4.67
2019-03-27T03:35:31.307Z,4.93
2019-03-27T03:38:04.791Z,4.67
2019-03-27T03:40:38.201Z,5.30
2019-03-27T03:43:11.611Z,5.43
2019-03-27T03:45:45.092Z,4.03
2019-03-27T03:48:18.660Z,4.77
2019-03-27T03:50:53.275Z,5.33
2019-03-27T03:53:27.116Z,4.90
2019-03-27T03:56:01.461Z,4.77
2019-03-27T03:58:36.372Z,5.17
2019-03-27T04:01:11.089Z,5.60
2019-03-27T04:03:45.521Z,5.13
2019-03-27T04:06:18.944Z,4.90
2019-03-27T04:08:52.403Z,5.40
2019-03-27T04:11:25.745Z,5.90
2019-03-27T04:13:59.122Z,7.97
2019-03-27T04:16:32.576Z,8.83
2019-03-27T04:19:06.088Z,7.97
2019-03-27T04:21:39.530Z,8.17
2019-03-27T04:24:13.078Z,8.90
2019-03-27T04:26:46.452Z,9.33
2019-03-27T04:29:19.987Z,5.20
2019-03-27T04:31:53.511Z,5.77
2019-03-27T04:34:26.984Z,6.07
2019-03-27T04:37:00.528Z,5.97
2019-03-27T04:39:33.922Z,6.10
2019-03-27T04:42:07.268Z,5.43
2019-03-27T04:44:40.635Z,6.50
2019-03-27T04:47:14.007Z,6.33
2019-03-27T04:49:47.454Z,6.57
2019-03-27T04:52:20.791Z,5.67
2019-03-27T04:54:54.175Z,6.10
2019-03-27T04:57:27.593Z,5.93
2019-03-27T05:00:01.127Z,5.63
2019-03-27T05:02:34.489Z,5.83
2019-03-27T05:05:08.214Z,5.77
2019-03-27T05:07:41.557Z,5.93
2019-03-27T05:10:15.012Z,6.80
2019-03-27T05:12:48.430Z,5.93
2019-03-27T05:15:21.825Z,5.53
2019-03-27T05:17:55.230Z,6.03
2019-03-27T05:20:28.922Z,7.60
2019-03-27T05:23:02.343Z,6.27
2019-03-27T05:25:35.852Z,5.67
2019-03-27T05:28:09.267Z,5.87
2019-03-27T05:30:42.776Z,5.17
2019-03-27T05:33:16.118Z,6.23
2019-03-27T05:35:49.528Z,6.90
2019-03-27T05:38:22.938Z,5.83
2019-03-27T05:40:56.406Z,6.40
2019-03-27T05:43:29.876Z,6.40
2019-03-27T05:46:03.350Z,5.90
2019-03-27T05:48:36.723Z,6.30
2019-03-27T05:51:10.272Z,5.93
2019-03-27T05:53:43.690Z,6.57
2019-03-27T05:56:17.207Z,6.50
2019-03-27T05:58:50.566Z,7.00
2019-03-27T06:01:24.037Z,7.90
2019-03-27T06:03:57.526Z,7.63
2019-03-27T06:06:31.180Z,7.83
2019-03-27T06:09:06.161Z,8.57
2019-03-27T06:11:39.572Z,8.30
2019-03-27T06:14:13.009Z,9.00
2019-03-27T06:16:46.504Z,8.43
2019-03-27T06:19:19.967Z,8.80
2019-03-27T06:21:53.433Z,8.17
2019-03-27T06:24:26.847Z,9.03
2019-03-27T06:27:00.383Z,8.70
2019-03-27T06:29:33.769Z,8.50
2019-03-27T06:32:07.232Z,8.50
2019-03-27T06:34:40.653Z,8.10
2019-03-27T06:37:14.031Z,7.70
2019-03-27T06:39:47.477Z,8.00
2019-03-27T06:42:20.949Z,9.17
2019-03-27T06:44:54.442Z,8.03
2019-03-27T06:47:27.811Z,7.27
2019-03-27T06:50:01.242Z,7.23
2019-03-27T06:52:34.804Z,7.47
2019-03-27T06:55:08.579Z,7.50
2019-03-27T06:57:42.109Z,7.73
2019-03-27T07:00:16.950Z,7.93
2019-03-27T07:02:50.334Z,8.13
2019-03-27T07:05:23.847Z,8.87
2019-03-27T07:07:57.362Z,8.60
2019-03-27T07:10:30.788Z,8.20
2019-03-27T07:13:04.326Z,7.87
2019-03-27T07:15:37.775Z,8.20
2019-03-27T07:18:11.258Z,7.77
2019-03-27T07:20:44.661Z,7.90
2019-03-27T07:23:18.144Z,8.23
2019-03-27T07:25:51.572Z,9.00
2019-03-27T07:28:25.024Z,9.07
2019-03-27T07:30:58.469Z,8.17
2019-03-27T07:33:31.922Z,9.17
2019-03-27T07:36:05.419Z,8.10
2019-03-27T07:38:38.801Z,9.80
2019-03-27T07:41:12.155Z,9.87
2019-03-27T07:43:45.619Z,9.87
2019-03-27T07:46:19.048Z,10.63
2019-03-27T07:48:54.227Z,9.23
2019-03-27T07:51:27.684Z,8.63
2019-03-27T07:54:01.125Z,8.43
2019-03-27T07:56:34.547Z,8.10
2019-03-27T07:59:08.080Z,8.17
2019-03-27T08:01:41.644Z,7.90
2019-03-27T08:04:15.637Z,7.90
2019-03-27T08:06:49.159Z,7.83
2019-03-27T08:09:23.139Z,7.70
2019-03-27T08:11:56.765Z,7.37
2019-03-27T08:14:30.251Z,7.63
2019-03-27T08:17:03.660Z,8.47
2019-03-27T08:19:37.141Z,8.63
2019-03-27T08:22:10.504Z,9.07
2019-03-27T08:24:43.981Z,7.73
2019-03-27T08:27:17.428Z,7.73
2019-03-27T08:29:50.902Z,8.90
2019-03-27T08:32:24.237Z,7.30
2019-03-27T08:34:57.631Z,8.17
2019-03-27T08:37:30.985Z,7.43
2019-03-27T08:40:07.003Z,8.37
2019-03-27T08:42:40.499Z,8.43
2019-03-27T08:45:14.427Z,8.40
2019-03-27T08:47:48.140Z,8.27
2019-03-27T08:50:21.774Z,7.70
2019-03-27T08:52:55.284Z,8.70
2019-03-27T08:55:28.661Z,8.23
2019-03-27T08:58:02.101Z,7.30
2019-03-27T09:00:46.900Z,7.53
2019-03-27T09:03:20.641Z,7.27
2019-03-27T09:05:54.086Z,6.57
2019-03-27T09:08:27.506Z,6.23
2019-03-27T09:11:04.373Z,6.70
2019-03-27T09:13:36.038Z,7.53
2019-03-27T09:16:09.588Z,6.50
2019-03-27T09:18:42.988Z,7.20
2019-03-27T09:21:16.394Z,7.65
2019-03-27T09:23:49.791Z,7.10
2019-03-27T09:26:23.170Z,6.40
2019-03-27T09:28:56.594Z,6.57
2019-03-27T09:31:43.692Z,6.30
2019-03-27T09:34:05.208Z,6.08
2019-03-27T09:36:38.667Z,5.70
2019-03-27T09:39:12.084Z,5.58
2019-03-27T09:41:45.454Z,6.97
2019-03-27T09:44:18.953Z,6.30
2019-03-27T09:46:52.549Z,4.65
2019-03-27T09:49:25.981Z,4.78
2019-03-27T09:51:59.418Z,4.90
2019-03-27T09:54:32.860Z,4.70
2019-03-27T09:57:06.266Z,4.30
2019-03-27T09:59:39.704Z,4.40
2019-03-27T10:02:13.163Z,3.60
2019-03-27T10:04:46.503Z,3.98
2019-03-27T10:07:19.879Z,3.25
2019-03-27T10:09:53.292Z,3.10
2019-03-27T10:12:26.859Z,2.72
2019-03-27T10:15:00.350Z,2.70
2019-03-27T10:17:33.945Z,4.42
2019-03-27T10:20:07.519Z,4.30
2019-03-27T10:22:40.958Z,3.98
2019-03-27T10:25:14.383Z,3.60
2019-03-27T10:27:47.895Z,3.75
2019-03-27T10:30:21.350Z,2.80
2019-03-27T10:32:54.803Z,3.40
2019-03-27T10:35:28.223Z,4.67
2019-03-27T10:38:02.117Z,3.55
2019-03-27T10:40:35.915Z,3.65
2019-03-27T10:43:09.356Z,2.80
2019-03-27T10:45:42.803Z,2.90
2019-03-27T10:48:16.242Z,3.02
2019-03-27T10:50:49.674Z,3.12
2019-03-27T10:53:23.178Z,2.92
2019-03-27T10:55:56.552Z,3.12
2019-03-27T10:58:30.177Z,2.65
2019-03-27T11:01:06.975Z,2.95
2019-03-27T11:03:38.779Z,2.83
2019-03-27T11:06:12.234Z,2.70
2019-03-27T11:08:45.787Z,3.37
2019-03-27T11:11:19.140Z,3.40
2019-03-27T11:13:52.516Z,2.95
2019-03-27T11:16:25.935Z,3.10
2019-03-27T11:18:59.315Z,2.87
2019-03-27T11:21:32.736Z,2.60
2019-03-27T11:24:06.178Z,2.40
2019-03-27T11:26:39.529Z,2.90
2019-03-27T11:29:12.892Z,2.80
2019-03-27T11:31:46.323Z,2.80
2019-03-27T11:34:19.728Z,2.90
2019-03-27T11:36:53.075Z,2.92
2019-03-27T11:39:26.537Z,3.42
2019-03-27T11:42:00.959Z,3.17
2019-03-27T11:44:34.602Z,3.42
2019-03-27T11:47:08.023Z,3.22
2019-03-27T11:49:41.499Z,3.52
2019-03-27T11:52:14.993Z,3.77
2019-03-27T11:54:48.449Z,3.83
2019-03-27T11:57:21.858Z,3.85
2019-03-27T11:59:55.223Z,3.80
2019-03-27T12:02:28.601Z,4.42
2019-03-27T12:05:02.072Z,4.53
2019-03-27T12:07:35.542Z,3.40
2019-03-27T12:10:09.322Z,3.62
2019-03-27T12:12:42.765Z,4.12
2019-03-27T12:15:19.284Z,4.35
2019-03-27T12:17:52.749Z,3.62
2019-03-27T12:20:26.173Z,3.87
2019-03-27T12:22:59.743Z,4.08
2019-03-27T12:25:33.155Z,4.58
2019-03-27T12:28:06.662Z,5.50
2019-03-27T12:30:40.081Z,6.15
2019-03-27T12:33:13.598Z,6.47
2019-03-27T12:35:47.252Z,6.25
2019-03-27T12:38:20.717Z,4.95
2019-03-27T12:40:54.211Z,4.47
2019-03-27T12:43:27.582Z,4.33
2019-03-27T12:46:00.998Z,3.50
2019-03-27T12:48:34.406Z,2.55
2019-03-27T12:51:13.194Z,2.85
2019-03-27T12:53:43.055Z,3.00
2019-03-27T12:56:16.455Z,3.55
2019-03-27T12:58:49.899Z,2.83
2019-03-27T13:01:23.283Z,3.42
2019-03-27T13:03:56.737Z,2.95
2019-03-27T13:06:30.144Z,2.70
2019-03-27T13:09:04.830Z,2.20
2019-03-27T13:11:38.597Z,2.80
2019-03-27T13:14:12.016Z,2.20
2019-03-27T13:16:45.363Z,2.50
2019-03-27T13:19:18.745Z,2.60
2019-03-27T13:21:52.078Z,2.90
2019-03-27T13:24:25.520Z,2.92
2019-03-27T13:26:58.937Z,2.95
2019-03-27T13:29:32.398Z,2.70
2019-03-27T13:32:05.812Z,3.00
2019-03-27T13:34:39.197Z,3.20
2019-03-27T13:37:12.601Z,2.90
2019-03-27T13:39:46.063Z,2.72
2019-03-27T13:42:19.419Z,3.10
2019-03-27T13:44:52.947Z,2.95
2019-03-27T13:47:26.365Z,3.02
2019-03-27T13:49:59.810Z,3.30
2019-03-27T13:52:33.332Z,2.95
2019-03-27T13:55:07.970Z,2.90
2019-03-27T13:57:41.467Z,3.25
2019-03-27T14:00:16.457Z,2.83
2019-03-27T14:02:49.799Z,3.35
2019-03-27T14:05:23.294Z,2.65
2019-03-27T14:07:56.702Z,2.67
2019-03-27T14:10:30.191Z,2.55
2019-03-27T14:13:03.603Z,2.67
2019-03-27T14:15:37.078Z,2.95
2019-03-27T14:18:10.480Z,2.75
2019-03-27T14:20:43.848Z,2.65
2019-03-27T14:23:17.338Z,3.10
2019-03-27T14:25:50.776Z,2.87
2019-03-27T14:28:24.200Z,2.98
2019-03-27T14:30:58.213Z,2.67
2019-03-27T14:33:31.631Z,2.80
2019-03-27T14:36:05.210Z,2.87
2019-03-27T14:38:38.575Z,3.62
2019-03-27T14:41:11.946Z,3.17
2019-03-27T14:43:45.294Z,3.35
2019-03-27T14:46:18.667Z,3.25
2019-03-27T14:48:52.022Z,2.77
2019-03-27T14:51:25.488Z,2.80
2019-03-27T14:53:58.904Z,2.58
2019-03-27T14:56:32.301Z,3.05
2019-03-27T14:59:05.725Z,3.08
2019-03-27T15:01:39.204Z,2.90
2019-03-27T15:04:12.732Z,2.90
2019-03-27T15:06:46.113Z,2.77
2019-03-27T15:09:19.467Z,2.52
2019-03-27T15:11:52.831Z,2.50
2019-03-27T15:14:26.252Z,2.45
2019-03-27T15:16:59.699Z,2.83
2019-03-27T15:19:33.297Z,2.37
2019-03-27T15:22:06.824Z,2.30
2019-03-27T15:24:40.175Z,2.15
2019-03-27T15:27:13.636Z,2.12
2019-03-27T15:29:47.151Z,2.42
2019-03-27T15:32:20.654Z,2.42
2019-03-27T15:34:54.016Z,2.37
2019-03-27T15:37:27.406Z,2.30
2019-03-27T15:40:00.867Z,2.87
2019-03-27T15:42:34.343Z,2.20
2019-03-27T15:45:08.958Z,2.15
2019-03-27T15:47:42.396Z,2.70
2019-03-27T15:50:15.923Z,2.33
2019-03-27T15:52:49.359Z,1.95
2019-03-27T15:55:22.807Z,2.45
2019-03-27T15:57:56.347Z,2.35
2019-03-27T16:00:29.782Z,2.90
2019-03-27T16:03:03.273Z,2.95
2019-03-27T16:05:36.725Z,3.17
2019-03-27T16:08:10.139Z,2.90
2019-03-27T16:10:43.806Z,3.40
2019-03-27T16:13:17.251Z,2.70
2019-03-27T16:15:50.697Z,3.50
2019-03-27T16:18:24.108Z,3.07
2019-03-27T16:20:57.571Z,3.17
2019-03-27T16:23:32.420Z,3.70
2019-03-27T16:26:06.013Z,3.50
2019-03-27T16:28:39.421Z,3.30
2019-03-27T16:31:13.047Z,4.00
2019-03-27T16:33:46.428Z,4.27
2019-03-27T16:36:19.958Z,3.92
2019-03-27T16:38:53.391Z,4.12
2019-03-27T16:41:26.958Z,3.80
2019-03-27T16:44:00.299Z,3.97
2019-03-27T16:46:33.749Z,3.90
2019-03-27T16:49:07.163Z,3.53
2019-03-27T16:51:40.611Z,4.20
2019-03-27T16:54:14.056Z,4.30
2019-03-27T16:56:47.501Z,4.30
2019-03-27T16:59:20.970Z,4.63
2019-03-27T17:01:54.495Z,4.73
2019-03-27T17:04:27.954Z,4.40
2019-03-27T17:07:01.346Z,4.43
2019-03-27T17:09:34.789Z,4.40
2019-03-27T17:12:08.182Z,4.83
2019-03-27T17:14:41.524Z,5.37
2019-03-27T17:17:15.052Z,5.30
2019-03-27T17:19:48.470Z,9.10
2019-03-27T17:22:21.917Z,6.70
2019-03-27T17:24:56.137Z,6.27
2019-03-27T17:27:29.811Z,5.47
2019-03-27T17:30:04.874Z,6.30
2019-03-27T17:32:38.350Z,5.90
2019-03-27T17:35:11.885Z,6.67
2019-03-27T17:37:45.435Z,6.00
2019-03-27T17:40:18.857Z,7.03
2019-03-27T17:42:52.308Z,7.07
2019-03-27T17:45:25.828Z,6.93
2019-03-27T17:47:59.438Z,7.00
2019-03-27T17:50:32.850Z,6.80
2019-03-27T17:53:06.323Z,10.40
2019-03-27T17:55:39.901Z,7.07
2019-03-27T17:58:13.400Z,7.37
2019-03-27T18:00:49.665Z,7.40
2019-03-27T18:03:23.130Z,7.00
2019-03-27T18:05:56.468Z,6.43
2019-03-27T18:08:30.284Z,6.77
2019-03-27T18:11:03.784Z,6.67
2019-03-27T18:13:37.285Z,7.27
2019-03-27T18:16:10.707Z,6.97
2019-03-27T18:18:44.142Z,6.93
2019-03-27T18:21:17.660Z,7.10
2019-03-27T18:23:51.121Z,7.60
2019-03-27T18:26:24.534Z,7.20
2019-03-27T18:28:58.031Z,7.10
2019-03-27T18:31:31.530Z,7.53
2019-03-27T18:34:05.132Z,7.27
2019-03-27T18:36:38.564Z,7.73
2019-03-27T18:39:12.011Z,7.43
2019-03-27T18:41:45.513Z,8.50
2019-03-27T18:44:18.957Z,8.90
2019-03-27T18:46:52.439Z,8.63
2019-03-27T18:49:25.884Z,8.00
2019-03-27T18:51:59.483Z,9.07
2019-03-27T18:54:32.951Z,8.53
2019-03-27T18:57:06.333Z,9.50
2019-03-27T18:59:39.852Z,9.00
2019-03-27T19:02:13.304Z,9.40
2019-03-27T19:04:46.823Z,8.87
2019-03-27T19:07:20.337Z,9.17
2019-03-27T19:09:53.762Z,10.20
2019-03-27T19:12:27.323Z,9.60
2019-03-27T19:15:00.819Z,10.37
2019-03-27T19:17:34.344Z,10.50
2019-03-27T19:20:08.036Z,12.93
2019-03-27T19:22:41.560Z,10.43
2019-03-27T19:25:14.973Z,13.20
2019-03-27T19:27:49.291Z,13.63
2019-03-27T19:30:22.812Z,15.17
2019-03-27T19:32:56.331Z,15.20
2019-03-27T19:35:29.854Z,15.07
2019-03-27T19:38:03.312Z,16.93
2019-03-27T19:40:36.807Z,17.17
2019-03-27T19:43:10.394Z,15.90
2019-03-27T19:45:43.807Z,15.57
2019-03-27T19:48:19.856Z,14.90
2019-03-27T19:50:53.394Z,14.87
2019-03-27T19:53:26.848Z,16.37
2019-03-27T19:56:00.320Z,15.60
2019-03-27T19:58:33.767Z,14.80
2019-03-27T20:01:07.632Z,13.30
2019-03-27T20:03:41.230Z,14.20
2019-03-27T20:06:14.651Z,16.07
2019-03-27T20:08:48.245Z,14.63
2019-03-27T20:11:21.672Z,13.93
2019-03-27T20:13:55.254Z,12.83
2019-03-27T20:16:28.919Z,13.13
2019-03-27T20:19:02.432Z,12.90
2019-03-27T20:21:36.142Z,13.70
2019-03-27T20:24:09.676Z,12.80
2019-03-27T20:26:43.920Z,13.93
2019-03-27T20:29:17.613Z,12.80
2019-03-27T20:31:51.111Z,11.90
2019-03-27T20:34:24.680Z,12.40
2019-03-27T20:36:58.107Z,11.80
2019-03-27T20:39:31.864Z,12.10
2019-03-27T20:42:05.372Z,11.10
2019-03-27T20:44:39.064Z,11.30
2019-03-27T20:47:12.617Z,11.20
2019-03-27T20:49:46.291Z,10.80
2019-03-27T20:52:19.930Z,10.63
2019-03-27T20:54:55.252Z,9.23
2019-03-27T20:57:28.891Z,9.93
2019-03-27T21:00:02.515Z,10.10
2019-03-27T21:02:36.268Z,10.83
2019-03-27T21:05:10.508Z,11.67
2019-03-27T21:07:44.198Z,10.67
2019-03-27T21:10:18.236Z,9.77
2019-03-27T21:12:51.874Z,9.70
2019-03-27T21:15:25.394Z,10.57
2019-03-27T21:17:59.211Z,10.37
2019-03-27T21:20:32.904Z,9.97
2019-03-27T21:23:06.605Z,10.20
2019-03-27T21:25:40.140Z,10.20
2019-03-27T21:28:13.780Z,9.57
2019-03-27T21:30:47.520Z,9.50
2019-03-27T21:33:21.300Z,9.43
2019-03-27T21:35:55.020Z,9.73
2019-03-27T21:38:29.035Z,10.27
2019-03-27T21:41:02.765Z,10.60
2019-03-27T21:43:36.132Z,9.87
2019-03-27T21:46:09.549Z,9.83
2019-03-27T21:48:42.996Z,10.83
2019-03-27T21:51:16.506Z,10.00
2019-03-27T21:53:50.807Z,10.37
2019-03-27T21:56:24.477Z,11.03
2019-03-27T21:58:58.042Z,11.33
2019-03-27T22:01:31.503Z,14.73
2019-03-27T22:04:04.980Z,11.10
2019-03-27T22:06:38.809Z,10.57
2019-03-27T22:09:12.343Z,11.80
2019-03-27T22:11:45.768Z,11.03
2019-03-27T22:14:19.244Z,10.70
2019-03-27T22:16:52.804Z,12.07
2019-03-27T22:19:26.266Z,12.60
2019-03-27T22:21:59.695Z,10.83
2019-03-27T22:24:33.276Z,11.37
2019-03-27T22:27:06.710Z,11.70
2019-03-27T22:29:40.227Z,10.20
2019-03-27T22:32:13.761Z,10.37
2019-03-27T22:34:47.260Z,10.80
2019-03-27T22:37:20.654Z,10.50
2019-03-27T22:39:54.027Z,10.33
2019-03-27T22:42:27.474Z,10.27
2019-03-27T22:45:00.984Z,10.53
2019-03-27T22:47:34.481Z,11.33
2019-03-27T22:50:08.827Z,10.67
2019-03-27T22:52:42.440Z,11.40
2019-03-27T22:55:15.963Z,11.67
2019-03-27T22:57:49.408Z,11.50
2019-03-27T23:00:24.495Z,11.13
2019-03-27T23:02:57.931Z,11.90
2019-03-27T23:05:31.457Z,11.20
2019-03-27T23:08:04.980Z,11.87
2019-03-27T23:10:38.598Z,12.00
2019-03-27T23:13:12.108Z,12.13
2019-03-27T23:15:45.692Z,11.00
2019-03-27T23:18:19.108Z,11.90
2019-03-27T23:20:52.606Z,11.67
2019-03-27T23:23:26.020Z,12.23
2019-03-27T23:26:03.143Z,11.27
2019-03-27T23:28:34.649Z,12.87
2019-03-27T23:31:08.138Z,12.00
2019-03-27T23:33:41.633Z,12.17
2019-03-27T23:36:15.148Z,12.83
2019-03-27T23:38:48.624Z,12.63
2019-03-27T23:41:22.049Z,13.53
2019-03-27T23:43:55.402Z,14.00
2019-03-27T23:46:28.928Z,13.40
2019-03-27T23:49:02.455Z,15.90
2019-03-27T23:51:36.037Z,14.87
2019-03-27T23:54:09.535Z,13.73
2019-03-27T23:56:43.063Z,14.83
2019-03-27T23:59:16.664Z,13.83
